Home   Weather   USA   Rogers   Past weeks
Flag for USA

Past Weather in Rogers, Arkansas, USA — Yesterday and Last 2 Weeks

Currently: 70 °F. Clear. (Weather station: Rogers Weather Reporting Station, USA). See more current weather

Past Weather in Rogers — Graph

°F

Rogers Temperature Yesterday

Maximum temperature yesterday: 84 °F (at 3:58 pm)
Minimum temperature yesterday: 64 °F (at 6:32 am)
Average temperature yesterday: 74 °F

High & Low Weather Summary for the Past Weeks

 TemperatureHumidityPressure
High95 °F (Jul 15, 1:58 pm)100% (Jul 9, 4:25 am)30.20 "Hg (Jul 9, 4:25 am)
Low60 °F (Jul 19, 3:58 am)42% (Jul 10, 2:58 pm)29.84 "Hg (Jul 15, 7:58 pm)
Average77 °F75%30.03 "Hg
* Reported Jul 9 3:39 am — Jul 23 11:58 pm, Rogers. Weather by CustomWeather, © 2024

Note: Actual official high and low records may vary slightly from our data, if they occured in-between our weather recording intervals... More about our weather records

Rogers Weather History for the Previous 24 Hours

Scroll right to see more
 ConditionsComfort  
Time TempWeatherWind HumidityBarometerVisibility
11:58 pm
Tue, Jul 23
71 °FClear.No wind93%30.10 "Hg10 mi
10:58 pm72 °FClear.3 mph93%30.09 "Hg10 mi
9:58 pm75 °FMostly cloudy.3 mph82%30.08 "Hg10 mi
8:58 pm78 °FOvercast.8 mph76%30.07 "Hg10 mi
7:58 pm80 °FPartly sunny.5 mph69%30.05 "Hg10 mi
7:02 pm81 °FMostly cloudy.8 mph70%30.08 "Hg8 mi
6:58 pm81 °FMostly cloudy.8 mph69%30.04 "Hg1 mi
5:58 pm84 °FSunny.6 mph57%30.03 "Hg10 mi
4:58 pm84 °FSunny.3 mph55%30.03 "Hg10 mi
3:58 pm84 °FSunny.6 mph57%30.03 "Hg10 mi
2:58 pm83 °FScattered clouds.6 mph61%30.04 "Hg10 mi
1:58 pm81 °FMostly cloudy.3 mph65%30.06 "Hg10 mi
12:58 pm82 °FSunny.3 mph60%30.06 "Hg10 mi
11:58 am80 °FScattered clouds.8 mph69%30.07 "Hg10 mi
10:58 am78 °FScattered clouds.3 mph76%30.07 "Hg10 mi
10:37 am75 °FScattered clouds.5 mph83%30.11 "Hg10 mi
10:11 am77 °FPartly sunny.6 mph79%30.11 "Hg10 mi
8:58 am73 °FPassing clouds.No wind88%30.07 "Hg10 mi
8:30 am72 °FScattered clouds.No wind94%30.11 "Hg9 mi
8:24 am70 °FBroken clouds.No wind100%30.11 "Hg7 mi
7:36 am68 °FFog.3 mph100%30.10 "Hg0 mi
7:20 am66 °FFog.No wind100%30.10 "Hg1 mi
7:08 am66 °FFog.3 mph100%30.09 "Hg1 mi
6:32 am64 °FFog.No wind100%30.08 "Hg5 mi
5:58 am66 °FClear.No wind100%30.03 "Hg9 mi
5:32 am66 °FPassing clouds.No wind100%30.07 "Hg10 mi
5:16 am66 °FFog.No wind100%30.06 "Hg1 mi
4:58 am66 °FFog.No wind100%30.01 "Hg3 mi
4:34 am66 °FFog.No wind100%30.05 "Hg1 mi
4:15 am68 °FFog.No wind100%30.05 "Hg4 mi
2:58 am69 °FOvercast.No wind100%30.02 "Hg10 mi
1:58 am69 °FPassing clouds.5 mph96%30.02 "Hg10 mi
Weather by CustomWeather, © 2024

See weather overview